Triathlon des Moines - Fourmies 2019

Epreuve sélectionnée:


M Open - Résultats Scratch

Filtre:

Partants Général Top 5



Recherche:

N° dossard
Nom
Club
M Open - Classement arrivée
Clt Athlète Nat. Club Temps Sexe Cat Nat #1 Velo Velo Cum #2 CaP Velo T1 Velo T2
1 36 MARRION Geoffrey BEL - PFA TEAM 01:57:52 M (1e) Master 40-49 (1e) 00:17:50 (2e) 00:01:20 (14e) 01:01:44 (1e) 01:20:53 (1e) 00:01:04 (22e) 00:35:55 (1e) 01:40:20 (1e) 01:57:52 (1e) Partagez votre performance
2 118 GOSSE Nicolas TEAM GOFAST ARMENTIERES TRIATHLON 02:04:21 M (2e) Master 40-49 (2e) 00:17:14 (1e) 00:01:16 (10e) 01:02:56 (2e) 01:21:24 (2e) 00:00:46 (6e) 00:42:12 (17e) 01:43:01 (2e) 02:04:21 (2e) Partagez votre performance
3 140 MARION Christophe VALENCIENNES TRIATHLON 02:07:51 M (3e) Master 40-49 (3e) 00:22:25 (29e) 00:01:37 (28e) 01:04:13 (8e) 01:28:14 (9e) 00:00:48 (9e) 00:38:51 (3e) 01:48:19 (4e) 02:07:51 (3e) Partagez votre performance
4 81 MATHYS Luc LILLE TRIATHLON 02:08:05 M (4e) Senior (1e) 00:20:45 (9e) 00:01:09 (7e) 01:04:56 (9e) 01:26:49 (5e) 00:01:05 (25e) 00:40:11 (6e) 01:48:26 (6e) 02:08:05 (4e) Partagez votre performance
5 44 DUMORTIER Jérôme C.C.WAVRIN 02:08:41 M (5e) Senior (2e) 00:20:39 (7e) 00:01:39 (33e) 01:03:27 (5e) 01:25:44 (4e) 00:01:07 (36e) 00:41:51 (15e) 01:47:38 (3e) 02:08:41 (5e) Partagez votre performance
6 82 BRAZY Matthieu LILLE TRIATHLON 02:08:46 M (6e) Senior (3e) 00:21:47 (24e) 00:01:41 (37e) 01:04:06 (6e) 01:27:33 (7e) 00:00:56 (13e) 00:40:18 (8e) 01:48:35 (7e) 02:08:46 (6e) Partagez votre performance
7 79 DELROISSE Rudy HENIN ENDURANCE TEAM 02:09:10 M (7e) Senior (4e) 00:19:05 (4e) 00:01:26 (18e) 01:07:20 (20e) 01:27:50 (8e) 00:01:05 (23e) 00:40:17 (7e) 01:49:01 (8e) 02:09:10 (7e) Partagez votre performance
8 111 LANCIEN Olivier PASTEL TRIATHLON SAINT QUENTIN 02:09:31 M (8e) Senior (5e) 00:23:03 (48e) 00:02:20 (82e) 01:03:17 (4e) 01:28:39 (10e) 00:00:51 (11e) 00:40:01 (5e) 01:49:10 (9e) 02:09:31 (8e) Partagez votre performance
9 136 LUTUN Pierre TRIATHLON LITTORAL 59 02:09:44 M (9e) Master 50+ (1e) 00:20:22 (5e) 00:01:14 (9e) 01:04:06 (7e) 01:25:41 (3e) 00:00:01 (1e) 00:44:03 (31e) 01:48:23 (5e) 02:09:44 (9e) Partagez votre performance
10 199 TEAM BEACH . MULTISPORTS ACADEMY 02:11:29 M (10e) RELAIS (1e) 00:23:26 (58e) 00:00:52 (2e) 01:03:09 (3e) 01:27:26 (6e) 00:00:40 (5e) 00:43:24 (23e) 01:49:35 (10e) 02:11:29 (10e) Partagez votre performance
11 62 PARISOT Stéphane CRAZY AND TRI 02:13:00 M (11e) Master 40-49 (4e) 00:22:42 (37e) 00:01:33 (25e) 01:05:49 (10e) 01:30:03 (14e) 00:01:12 (45e) 00:41:47 (14e) 01:52:06 (11e) 02:13:00 (11e) Partagez votre performance
12 86 JABLONSKI Sebastien NL - A.L.C VIEUX CONDE 02:14:00 M (12e) Master 40-49 (5e) 00:21:17 (18e) 00:01:38 (30e) 01:07:11 (17e) 01:30:05 (15e) 00:01:27 (76e) 00:42:29 (21e) 01:52:17 (12e) 02:14:00 (12e) Partagez votre performance
13 139 ZUCCHERO Aurélien VALENCIENNES TRIATHLON 02:14:30 M (13e) Master 40-49 (6e) 00:21:08 (14e) 00:01:17 (11e) 01:07:05 (16e) 01:29:29 (11e) 00:01:14 (49e) 00:43:48 (26e) 01:52:38 (13e) 02:14:30 (13e) Partagez votre performance
14 83 BOUVELLE Julien LILLE TRIATHLON 02:14:53 M (14e) Senior (6e) 00:21:15 (17e) 00:01:54 (56e) 01:06:39 (13e) 01:29:46 (12e) 00:01:06 (31e) 00:44:01 (30e) 01:52:49 (14e) 02:14:53 (14e) Partagez votre performance
15 113 GAIGNEUR Dimitri RACING CLUB ARRAS TRIATHLON 02:15:09 M (15e) Master 40-49 (7e) 00:22:28 (30e) 00:01:34 (26e) 01:06:02 (12e) 01:30:02 (13e) 00:01:11 (44e) 00:43:57 (29e) 01:53:08 (15e) 02:15:09 (15e) Partagez votre performance
16 154 FRICOTEAUX Victor 02:15:44 M (16e) Senior (7e) 00:22:39 (35e) 00:02:51 (118e) 01:10:41 (38e) 01:36:09 (35e) 00:01:02 (19e) 00:38:34 (2e) 01:56:09 (22e) 02:15:44 (16e) Partagez votre performance
17 58 REGHEM Thierry CLUB ATHLETIQUE FOURMISIEN 02:15:54 M (17e) Master 50+ (2e) 00:21:22 (19e) 00:01:44 (42e) 01:07:14 (18e) 01:30:20 (17e) 00:01:07 (33e) 00:44:29 (35e) 01:53:31 (16e) 02:15:54 (17e) Partagez votre performance
18 173 TILLIER Johann 02:16:06 M (18e) Master 40-49 (8e) 00:23:40 (63e) 00:01:33 (24e) 01:07:16 (19e) 01:32:27 (21e) 00:01:32 (86e) 00:42:07 (16e) 01:55:09 (17e) 02:16:06 (18e) Partagez votre performance
19 48 DECAUX Louis CLUB ATHLETIQUE FOURMISIEN 02:16:38 M (19e) Junior (1e) 00:22:42 (39e) 00:01:24 (16e) 01:07:53 (22e) 01:31:58 (20e) 00:01:10 (41e) 00:43:31 (24e) 01:55:13 (18e) 02:16:38 (19e) Partagez votre performance
20 138 CAULIER Guillaume TRIATHLON ORCHIES PEVELE 02:17:09 M (20e) Master 40-49 (9e) 00:24:04 (69e) 00:02:39 (104e) 01:08:01 (23e) 01:34:43 (26e) 00:01:10 (40e) 00:41:17 (11e) 01:56:32 (24e) 02:17:09 (20e) Partagez votre performance
21 186 LEGILLON Sylvain 02:17:21 M (21e) Senior (8e) 00:23:02 (46e) 00:01:50 (51e) 01:05:53 (11e) 01:30:44 (18e) 00:01:21 (68e) 00:45:17 (43e) 01:55:40 (20e) 02:17:21 (21e) Partagez votre performance
22 185 VOLPOET Grégoire 02:17:21 M (22e) Senior (9e) 00:21:33 (21e) 00:01:47 (49e) 01:08:05 (24e) 01:31:23 (19e) 00:01:22 (69e) 00:44:37 (36e) 01:55:28 (19e) 02:17:21 (22e) Partagez votre performance
23 38 HENNIAUX Quentin BEL - SHARKS 02:17:37 M (23e) Senior (10e) 00:22:55 (43e) 00:01:51 (52e) 01:11:05 (43e) 01:35:49 (31e) 00:01:20 (65e) 00:40:29 (9e) 01:57:26 (25e) 02:17:37 (23e) Partagez votre performance
24 178 LEBRUN Emmanuel 02:17:41 M (24e) Master 40-49 (10e) 00:25:22 (91e) 00:02:10 (73e) 01:07:01 (15e) 01:34:32 (24e) 00:01:32 (88e) 00:41:38 (13e) 01:56:17 (23e) 02:17:41 (24e) Partagez votre performance
25 155 BENJAMIN Deweine 02:19:05 M (25e) Senior (11e) 00:22:05 (27e) 00:01:20 (13e) 01:06:53 (14e) 01:30:16 (16e) 00:00:59 (15e) 00:47:51 (67e) 01:56:03 (21e) 02:19:05 (25e) Partagez votre performance
26 200 TOURNEUX-ENSABELLA . 02:20:26 M (26e) RELAIS (2e) 00:26:56 (131e) 00:02:07 (70e) 01:11:22 (51e) 01:40:25 (76e) 00:00:46 (8e) 00:39:16 (4e) 02:00:33 (39e) 02:20:26 (26e) Partagez votre performance
27 40 MARION Yves BEL - TRIATHLON CHIMAY COUVIN 02:20:40 M (27e) Master 50+ (3e) 00:26:09 (108e) 00:03:10 (135e) 01:08:35 (26e) 01:37:53 (53e) 00:01:30 (81e) 00:41:19 (12e) 01:59:59 (35e) 02:20:40 (27e) Partagez votre performance
28 114 DELANNOY Xavier RACING CLUB ARRAS TRIATHLON 02:20:54 M (28e) Senior (12e) 00:22:45 (40e) 00:01:30 (21e) 01:11:11 (46e) 01:35:26 (29e) 00:01:24 (74e) 00:44:05 (32e) 01:59:02 (27e) 02:20:54 (28e) Partagez votre performance
29 116 GOURDAIN Franck TEAM GOFAST ARMENTIERES TRIATHLON 02:21:03 M (29e) Master 40-49 (11e) 00:24:56 (86e) 00:02:28 (91e) 01:09:24 (30e) 01:36:47 (41e) 00:01:54 (126e) 00:42:23 (20e) 02:00:00 (36e) 02:21:03 (29e) Partagez votre performance
30 143 MONDON Pascal WASQUEHAL TRIATHLON 02:21:04 M (30e) Master 40-49 (12e) 00:25:47 (99e) 00:01:53 (53e) 01:07:43 (21e) 01:35:21 (27e) 00:01:18 (58e) 00:44:26 (34e) 01:58:42 (26e) 02:21:04 (30e) Partagez votre performance
31 159 LORAIN Cyprien 02:21:19 M (31e) Senior (13e) 00:22:55 (44e) 00:01:44 (41e) 01:11:29 (52e) 01:36:07 (34e) 00:01:33 (92e) 00:43:39 (25e) 01:59:11 (29e) 02:21:19 (31e) Partagez votre performance
32 57 BECKER Ludovic CLUB ATHLETIQUE FOURMISIEN 02:21:20 M (32e) Senior (14e) 00:24:53 (84e) 00:01:21 (15e) 01:11:19 (50e) 01:37:32 (51e) 00:00:54 (12e) 00:42:54 (22e) 01:59:54 (31e) 02:21:20 (32e) Partagez votre performance
33 47 LOCUTY Johann CLUB ATHLETIQUE FOURMISIEN 02:22:05 M (33e) Senior (15e) 00:26:47 (123e) 00:01:24 (17e) 01:08:28 (25e) 01:36:38 (39e) 00:01:09 (38e) 00:44:18 (33e) 02:00:17 (38e) 02:22:05 (33e) Partagez votre performance
34 51 COFFIER Christophe CLUB ATHLETIQUE FOURMISIEN 02:22:32 M (34e) Master 50+ (4e) 00:22:00 (26e) 00:01:43 (40e) 01:10:06 (33e) 01:33:47 (22e) 00:01:23 (73e) 00:47:23 (60e) 01:59:05 (28e) 02:22:32 (34e) Partagez votre performance
35 197 FABRICE PIETTON . 02:22:52 M (35e) RELAIS (3e) 00:24:44 (83e) 00:00:59 (4e) 01:11:13 (47e) 01:36:56 (44e) 00:00:50 (10e) 00:45:08 (41e) 01:59:57 (32e) 02:22:52 (35e) Partagez votre performance
36 147 GIMONET Fabien 02:23:04 M (36e) Master 40-49 (13e) 00:22:39 (34e) 00:02:31 (98e) 01:10:56 (42e) 01:36:04 (33e) 00:01:28 (80e) 00:45:33 (45e) 01:59:59 (34e) 02:23:04 (36e) Partagez votre performance
37 112 KIM Sebastien PONT AUDEMER TRIATHLON 02:23:30 M (37e) Senior (16e) 00:23:16 (52e) 00:01:41 (35e) 01:10:32 (37e) 01:35:27 (30e) 00:01:49 (114e) 00:46:15 (49e) 01:59:50 (30e) 02:23:30 (37e) Partagez votre performance
38 126 DUCARME Dominique TEAM TRIATHLON MAUBEUGE 02:24:13 M (38e) Master 50+ (5e) 00:24:11 (71e) 00:01:45 (45e) 01:10:47 (41e) 01:36:42 (40e) 00:01:06 (29e) 00:46:26 (50e) 02:01:13 (41e) 02:24:13 (38e) Partagez votre performance
39 35 THAELS Tom BEL - OTC THUIN 02:24:15 M (39e) Master 40-49 (14e) 00:21:14 (16e) 00:02:41 (108e) 01:10:41 (39e) 01:34:36 (25e) 00:01:33 (89e) 00:48:07 (71e) 01:59:57 (33e) 02:24:15 (39e) Partagez votre performance
40 45 VALET Mathieu CHARLEVILLE TRIATHLON ARDENNES 02:24:29 M (40e) Senior (17e) 00:21:38 (22e) 00:01:55 (58e) 01:11:51 (61e) 01:35:23 (28e) 00:01:55 (128e) 00:47:12 (56e) 02:00:50 (40e) 02:24:29 (40e) Partagez votre performance
41 104 NAZAR Sami NL - SAMI NAZAR 02:25:10 M (41e) Senior (18e) 00:20:37 (6e) 00:02:40 (106e) 01:14:03 (78e) 01:37:19 (47e) 00:01:07 (35e) 00:46:45 (53e) 02:02:10 (46e) 02:25:10 (41e) Partagez votre performance
42 74 COQUEL Franck FLANDRE LYS TRIATHLON 02:25:13 M (42e) Master 40-49 (15e) 00:23:50 (66e) 00:01:54 (57e) 01:11:16 (49e) 01:36:59 (45e) 00:01:33 (91e) 00:46:42 (52e) 02:01:47 (45e) 02:25:13 (42e) Partagez votre performance
43 129 EVRARD Geoffrey TOBESPORT 02:25:14 M (43e) Master 40-49 (16e) 00:25:05 (88e) 00:04:04 (158e) 01:10:02 (32e) 01:39:10 (65e) 00:02:09 (144e) 00:43:56 (28e) 02:03:23 (50e) 02:25:14 (43e)